createdAt,value
2023-10-17T00:00:30.186Z,0.70
2023-10-17T00:03:00.761Z,1.20
2023-10-17T00:05:28.072Z,0.80
2023-10-17T00:07:59.768Z,0.90
2023-10-17T00:10:31.439Z,0.90
2023-10-17T00:13:09.994Z,0.90
2023-10-17T00:18:20.437Z,0.70
2023-10-17T00:20:52.232Z,0.90
2023-10-17T00:23:22.087Z,0.90
2023-10-17T00:25:50.522Z,0.90
2023-10-17T00:28:21.786Z,0.90
2023-10-17T00:30:54.475Z,0.80
2023-10-17T00:33:25.386Z,1.00
2023-10-17T00:35:52.608Z,0.90
2023-10-17T00:38:19.433Z,1.10
2023-10-17T00:40:49.114Z,1.00
2023-10-17T00:43:17.071Z,1.00
2023-10-17T00:45:47.457Z,1.00
2023-10-17T00:48:19.997Z,1.20
2023-10-17T00:50:53.504Z,1.00
2023-10-17T00:53:21.559Z,1.10
2023-10-17T00:56:07.653Z,1.00
2023-10-17T00:58:36.752Z,0.90
2023-10-17T01:01:21.801Z,0.80
2023-10-17T01:03:53.253Z,1.30
2023-10-17T01:06:32.952Z,1.00
2023-10-17T01:09:00.056Z,0.90
2023-10-17T01:11:30.712Z,0.90
2023-10-17T01:13:58.762Z,1.10
2023-10-17T01:16:26.963Z,2.40
2023-10-17T01:18:55.564Z,1.10
2023-10-17T01:21:23.561Z,1.00
2023-10-17T01:23:51.758Z,1.00
2023-10-17T01:26:24.839Z,0.90
2023-10-17T01:28:54.181Z,1.00
2023-10-17T01:31:24.423Z,1.00
2023-10-17T01:33:55.921Z,0.90
2023-10-17T01:36:25.220Z,1.00
2023-10-17T01:38:53.396Z,1.10
2023-10-17T01:41:21.698Z,1.00
2023-10-17T01:43:50.176Z,0.90
2023-10-17T01:46:23.905Z,1.00
2023-10-17T01:48:55.257Z,1.10
2023-10-17T01:51:24.627Z,1.00
2023-10-17T01:53:52.683Z,1.00
2023-10-17T01:56:28.288Z,1.00
2023-10-17T01:58:56.769Z,1.10
2023-10-17T02:01:31.057Z,0.80
2023-10-17T02:04:05.398Z,0.80
2023-10-17T02:06:34.585Z,0.90
2023-10-17T02:09:21.615Z,1.00
2023-10-17T02:11:52.176Z,0.90
2023-10-17T02:14:19.130Z,1.10
2023-10-17T02:16:45.917Z,0.90
2023-10-17T02:19:12.755Z,0.90
2023-10-17T02:21:45.469Z,1.00
2023-10-17T02:24:12.317Z,0.90
2023-10-17T02:26:56.220Z,1.10
2023-10-17T02:29:28.063Z,1.30
2023-10-17T02:31:56.649Z,1.10
2023-10-17T02:34:24.426Z,0.90
2023-10-17T02:36:51.832Z,1.10
2023-10-17T02:39:18.736Z,1.20
2023-10-17T02:41:47.768Z,1.10
2023-10-17T02:44:20.399Z,0.70
2023-10-17T02:46:47.401Z,1.00
2023-10-17T02:49:17.575Z,1.00
2023-10-17T02:51:44.793Z,1.00
2023-10-17T02:54:17.511Z,1.20
2023-10-17T02:56:54.782Z,1.10
2023-10-17T02:59:25.535Z,1.20
2023-10-17T03:01:55.417Z,1.00
2023-10-17T03:04:26.231Z,1.20
2023-10-17T03:06:55.398Z,1.10
2023-10-17T03:09:23.830Z,1.00
2023-10-17T03:12:07.706Z,1.10
2023-10-17T03:14:47.951Z,1.10
2023-10-17T03:17:16.788Z,1.20
2023-10-17T03:19:43.931Z,1.00
2023-10-17T03:22:28.036Z,1.90
2023-10-17T03:25:16.055Z,1.20
2023-10-17T03:27:49.937Z,1.00
2023-10-17T03:30:21.511Z,1.10
2023-10-17T03:33:01.467Z,1.20
2023-10-17T03:35:30.558Z,1.20
2023-10-17T03:37:57.508Z,0.90
2023-10-17T03:40:43.217Z,1.10
2023-10-17T03:43:13.490Z,1.10
2023-10-17T03:45:54.106Z,1.20
2023-10-17T03:48:22.461Z,1.20
2023-10-17T03:50:49.480Z,1.40
2023-10-17T03:53:17.258Z,1.40
2023-10-17T03:55:56.192Z,1.30
2023-10-17T03:59:19.524Z,1.20
2023-10-17T04:01:49.838Z,0.90
2023-10-17T04:04:27.562Z,1.30
2023-10-17T04:06:57.754Z,1.10
2023-10-17T04:09:29.295Z,1.50
2023-10-17T04:12:04.784Z,1.00
2023-10-17T04:14:51.701Z,0.90
2023-10-17T04:17:24.857Z,1.50
2023-10-17T04:20:00.172Z,1.40
2023-10-17T04:22:30.853Z,1.50
2023-10-17T04:25:02.378Z,1.40
2023-10-17T04:27:33.345Z,1.60
2023-10-17T04:30:00.913Z,1.30
2023-10-17T04:32:40.009Z,1.50
2023-10-17T04:35:08.432Z,1.50
2023-10-17T04:37:38.873Z,1.00
2023-10-17T04:40:24.837Z,1.30
2023-10-17T04:42:54.429Z,1.30
2023-10-17T04:45:21.673Z,1.60
2023-10-17T04:47:49.104Z,1.30
2023-10-17T04:50:17.639Z,1.40
2023-10-17T04:52:48.415Z,1.40
2023-10-17T04:55:29.672Z,1.40
2023-10-17T04:57:56.348Z,1.50
2023-10-17T05:00:44.943Z,1.10
2023-10-17T05:03:34.484Z,1.10
2023-10-17T05:06:12.455Z,1.30
2023-10-17T05:08:58.034Z,1.20
2023-10-17T05:11:43.848Z,1.50
2023-10-17T05:14:29.536Z,1.20
2023-10-17T05:17:15.122Z,1.30
2023-10-17T05:20:00.589Z,1.20
2023-10-17T05:22:46.182Z,1.30
2023-10-17T05:25:31.472Z,1.30
2023-10-17T05:28:17.006Z,1.50
2023-10-17T05:31:02.505Z,1.70
2023-10-17T05:33:47.771Z,1.30
2023-10-17T05:36:33.932Z,1.60
2023-10-17T05:39:19.618Z,1.50
2023-10-17T05:42:04.928Z,1.50
2023-10-17T05:44:50.615Z,1.40
2023-10-17T05:47:35.869Z,1.60
2023-10-17T05:50:21.388Z,1.60
2023-10-17T05:53:06.740Z,1.50
2023-10-17T05:55:52.572Z,1.70
2023-10-17T05:58:38.322Z,1.50
2023-10-17T06:01:24.337Z,1.30
2023-10-17T06:04:23.633Z,1.50
2023-10-17T06:07:09.004Z,2.90
2023-10-17T06:09:54.756Z,1.60
2023-10-17T06:12:40.626Z,1.60
2023-10-17T06:15:40.819Z,1.50
2023-10-17T06:18:18.920Z,1.80
2023-10-17T06:25:31.644Z,1.40
2023-10-17T06:28:16.985Z,1.90
2023-10-17T06:30:49.457Z,1.50
2023-10-17T06:33:21.164Z,2.40
2023-10-17T06:35:54.389Z,2.10
2023-10-17T06:38:29.298Z,1.80
2023-10-17T06:41:13.290Z,1.70
2023-10-17T06:43:41.672Z,1.70
2023-10-17T06:46:14.475Z,1.80
2023-10-17T06:48:51.106Z,1.80
2023-10-17T06:51:21.324Z,1.50
2023-10-17T06:53:48.723Z,1.60
2023-10-17T06:56:18.956Z,1.70
2023-10-17T06:58:46.306Z,1.70
2023-10-17T07:01:26.429Z,1.70
2023-10-17T07:03:57.105Z,1.40
2023-10-17T07:13:52.846Z,1.80
2023-10-17T07:20:48.900Z,1.90
2023-10-17T07:23:16.849Z,2.30
2023-10-17T07:30:04.345Z,2.10
2023-10-17T07:32:34.802Z,2.20
2023-10-17T07:39:37.941Z,1.80
2023-10-17T07:42:06.062Z,2.10
2023-10-17T07:44:53.040Z,2.20
2023-10-17T07:55:38.079Z,2.20
2023-10-17T08:02:32.325Z,2.30
2023-10-17T08:05:18.278Z,2.50
2023-10-17T08:07:50.633Z,2.20
2023-10-17T08:14:35.604Z,2.50
2023-10-17T08:17:02.497Z,2.20
2023-10-17T08:19:38.898Z,2.40
2023-10-17T08:22:08.466Z,2.50
2023-10-17T08:24:42.156Z,2.00
2023-10-17T08:27:24.298Z,2.50
2023-10-17T08:30:10.790Z,2.40
2023-10-17T08:32:41.022Z,2.10
2023-10-17T08:39:28.225Z,1.80
2023-10-17T08:41:58.796Z,2.50
2023-10-17T08:44:31.204Z,2.60
2023-10-17T08:51:28.761Z,2.40
2023-10-17T08:53:56.547Z,2.60
2023-10-17T08:56:23.824Z,3.00
2023-10-17T08:59:04.610Z,2.40
2023-10-17T09:01:31.692Z,2.60
2023-10-17T09:03:58.906Z,2.40
2023-10-17T09:06:25.966Z,2.80
2023-10-17T09:13:27.089Z,2.60
2023-10-17T09:15:57.618Z,2.50
2023-10-17T09:18:41.339Z,2.70
2023-10-17T09:21:10.409Z,2.30
2023-10-17T09:23:40.157Z,2.80
2023-10-17T09:30:34.289Z,2.00
2023-10-17T09:33:01.103Z,2.30
2023-10-17T09:35:28.437Z,2.40
2023-10-17T09:37:58.005Z,2.50
2023-10-17T09:44:45.931Z,2.30
2023-10-17T09:47:20.133Z,2.30
2023-10-17T09:54:11.169Z,2.10
2023-10-17T10:00:55.262Z,2.60
2023-10-17T10:03:26.760Z,2.30
2023-10-17T10:05:56.708Z,2.40
2023-10-17T10:08:34.489Z,2.60
2023-10-17T10:11:02.703Z,2.40
2023-10-17T10:13:32.652Z,1.80
2023-10-17T10:16:05.479Z,2.40
2023-10-17T10:18:36.241Z,2.50
2023-10-17T10:21:04.650Z,2.90
2023-10-17T10:23:47.941Z,2.70
2023-10-17T10:26:18.584Z,2.60
2023-10-17T10:33:05.377Z,2.60
2023-10-17T10:35:33.792Z,3.00
2023-10-17T10:38:01.438Z,3.10
2023-10-17T10:40:31.942Z,2.60
2023-10-17T10:43:05.689Z,2.70
2023-10-17T10:45:43.859Z,2.70
2023-10-17T10:48:16.065Z,2.30
2023-10-17T10:53:22.716Z,2.60
2023-10-17T10:55:53.538Z,2.20
2023-10-17T10:58:20.270Z,2.40
2023-10-17T11:00:48.131Z,2.70
2023-10-17T11:03:15.172Z,2.70
2023-10-17T11:06:11.871Z,3.00
2023-10-17T11:08:48.282Z,3.20
2023-10-17T11:11:16.932Z,3.10
2023-10-17T11:13:48.069Z,2.80
2023-10-17T11:16:22.887Z,2.40
2023-10-17T11:18:50.594Z,2.50
2023-10-17T11:21:23.242Z,2.20
2023-10-17T11:23:52.018Z,2.40
2023-10-17T11:26:28.736Z,2.00
2023-10-17T11:28:57.831Z,2.90
2023-10-17T11:31:26.485Z,3.00
2023-10-17T11:34:01.224Z,2.90
2023-10-17T11:36:37.289Z,3.10
2023-10-17T11:39:07.208Z,3.30
2023-10-17T11:41:48.623Z,2.40
2023-10-17T11:44:17.448Z,2.70
2023-10-17T11:46:56.967Z,2.50
2023-10-17T11:49:28.386Z,2.50
2023-10-17T11:52:02.183Z,2.60
2023-10-17T11:54:34.439Z,2.40
2023-10-17T11:57:16.870Z,2.60
2023-10-17T12:00:12.168Z,2.60
2023-10-17T12:02:43.918Z,2.50
2023-10-17T12:05:19.338Z,3.00
2023-10-17T12:07:50.978Z,2.60
2023-10-17T12:10:18.565Z,2.80
2023-10-17T12:12:45.849Z,2.60
2023-10-17T12:15:15.827Z,2.80
2023-10-17T12:22:05.545Z,2.70
2023-10-17T12:24:39.104Z,2.20
2023-10-17T12:27:13.893Z,3.20
2023-10-17T12:29:42.126Z,2.60
2023-10-17T12:36:28.426Z,2.90
2023-10-17T12:38:58.555Z,3.20
2023-10-17T12:45:45.626Z,2.80
2023-10-17T12:48:12.729Z,3.10
2023-10-17T12:50:45.576Z,2.80
2023-10-17T12:57:25.583Z,3.00
2023-10-17T12:59:52.367Z,2.90
2023-10-17T13:06:32.531Z,2.60
2023-10-17T13:08:59.321Z,2.50
2023-10-17T13:15:45.420Z,2.60
2023-10-17T13:18:14.362Z,2.50
2023-10-17T13:25:00.906Z,2.80
2023-10-17T13:31:40.419Z,2.30
2023-10-17T13:38:27.310Z,2.40
2023-10-17T13:45:01.064Z,2.50
2023-10-17T13:47:27.930Z,2.60
2023-10-17T13:54:22.492Z,2.80
2023-10-17T13:56:49.473Z,3.00
2023-10-17T13:59:16.512Z,2.90
2023-10-17T14:01:43.353Z,2.80
2023-10-17T14:12:52.905Z,2.70
2023-10-17T14:19:46.496Z,2.60
2023-10-17T14:22:22.686Z,2.70
2023-10-17T14:24:55.753Z,2.50
2023-10-17T14:27:26.532Z,2.30
2023-10-17T14:29:54.129Z,2.40
2023-10-17T14:32:23.398Z,2.10
2023-10-17T14:34:50.864Z,3.00
2023-10-17T14:41:41.617Z,2.70
2023-10-17T14:44:08.492Z,2.10
2023-10-17T14:46:35.297Z,2.20
2023-10-17T14:49:03.049Z,2.20
2023-10-17T14:51:29.844Z,2.30
2023-10-17T14:53:56.991Z,1.90
2023-10-17T14:56:23.751Z,2.20
2023-10-17T14:58:51.602Z,2.30
2023-10-17T15:05:40.835Z,2.20
2023-10-17T15:12:34.612Z,2.00
2023-10-17T15:15:01.477Z,2.10
2023-10-17T15:17:28.363Z,2.30
2023-10-17T15:24:14.754Z,2.40
2023-10-17T15:26:42.292Z,2.60
2023-10-17T15:29:09.013Z,2.90
2023-10-17T15:31:35.749Z,2.20
2023-10-17T15:34:02.801Z,2.40
2023-10-17T15:36:31.065Z,2.40
2023-10-17T15:38:57.955Z,2.30
2023-10-17T15:41:24.994Z,2.00
2023-10-17T15:43:51.861Z,2.60
2023-10-17T15:46:18.768Z,3.00
2023-10-17T15:48:45.985Z,2.50
2023-10-17T15:51:23.477Z,2.30
2023-10-17T15:53:51.850Z,3.20
2023-10-17T15:56:18.603Z,2.80
2023-10-17T15:58:47.167Z,2.40
2023-10-17T16:01:14.734Z,3.20
2023-10-17T16:03:44.359Z,2.90
2023-10-17T16:06:11.462Z,3.10
2023-10-17T16:08:38.245Z,2.80
2023-10-17T16:11:06.717Z,2.80
2023-10-17T16:13:33.515Z,3.00
2023-10-17T16:16:01.621Z,3.30
2023-10-17T16:18:28.923Z,3.10
2023-10-17T16:25:16.494Z,2.70
2023-10-17T16:27:45.749Z,2.70
2023-10-17T16:30:14.083Z,3.10
2023-10-17T16:32:40.891Z,2.90
2023-10-17T16:35:08.732Z,2.30
2023-10-17T16:37:38.032Z,2.00
2023-10-17T16:40:05.901Z,2.00
2023-10-17T16:42:33.847Z,2.20
2023-10-17T16:45:01.362Z,2.30
2023-10-17T16:47:28.460Z,2.20
2023-10-17T16:49:57.212Z,2.20
2023-10-17T16:52:24.357Z,2.20
2023-10-17T16:54:51.307Z,2.60
2023-10-17T16:57:18.180Z,2.00
2023-10-17T16:59:54.505Z,1.90
2023-10-17T17:02:33.555Z,2.30
2023-10-17T17:05:00.842Z,1.80
2023-10-17T17:07:28.832Z,2.40
2023-10-17T17:14:12.539Z,2.00
2023-10-17T17:21:09.882Z,2.10
2023-10-17T17:23:36.664Z,2.20
2023-10-17T17:30:31.359Z,2.50
2023-10-17T17:37:12.717Z,2.20
2023-10-17T17:39:39.429Z,2.30
2023-10-17T17:46:21.190Z,2.00
2023-10-17T17:53:08.141Z,2.40
2023-10-17T17:55:40.711Z,2.00
2023-10-17T17:58:08.432Z,2.40
2023-10-17T18:00:35.616Z,2.60
2023-10-17T18:03:02.577Z,2.60
2023-10-17T18:09:42.945Z,3.00
2023-10-17T18:12:09.813Z,2.80
2023-10-17T18:14:36.967Z,2.80
2023-10-17T18:17:05.555Z,3.00
2023-10-17T18:19:32.923Z,2.90
2023-10-17T18:21:59.745Z,2.30
2023-10-17T18:24:26.581Z,2.80
2023-10-17T18:26:53.486Z,2.90
2023-10-17T18:29:21.780Z,3.40
2023-10-17T18:31:49.495Z,2.90
2023-10-17T18:34:16.498Z,2.80
2023-10-17T18:36:43.353Z,2.40
2023-10-17T18:39:10.107Z,2.50
2023-10-17T18:41:41.490Z,2.80
2023-10-17T18:44:09.501Z,3.40
2023-10-17T18:51:04.424Z,3.30
2023-10-17T18:53:36.790Z,3.10
2023-10-17T18:56:08.145Z,2.60
2023-10-17T18:58:39.509Z,3.10
2023-10-17T19:01:14.850Z,3.20
2023-10-17T19:03:44.135Z,3.20
2023-10-17T19:10:31.019Z,2.80
2023-10-17T19:17:25.354Z,2.70
2023-10-17T19:19:52.360Z,2.70
2023-10-17T19:26:34.900Z,2.90
2023-10-17T19:33:30.495Z,3.10
2023-10-17T19:35:57.800Z,3.20
2023-10-17T19:38:25.738Z,3.40
2023-10-17T19:40:57.808Z,3.30
2023-10-17T19:43:25.294Z,4.00
2023-10-17T19:45:52.375Z,3.10
2023-10-17T19:48:30.132Z,3.50
2023-10-17T19:50:59.641Z,2.80
2023-10-17T19:53:29.738Z,2.90
2023-10-17T19:55:57.092Z,3.50
2023-10-17T19:58:23.857Z,3.20
2023-10-17T20:00:50.805Z,3.00
2023-10-17T20:03:29.805Z,3.00
2023-10-17T20:05:58.848Z,2.90
2023-10-17T20:08:25.573Z,3.10
2023-10-17T20:15:10.397Z,2.80
2023-10-17T20:17:38.798Z,3.30
2023-10-17T20:20:07.663Z,3.00
2023-10-17T20:22:38.316Z,3.10
2023-10-17T20:29:32.149Z,2.90
2023-10-17T20:31:59.178Z,2.90
2023-10-17T20:34:26.868Z,3.00
2023-10-17T20:36:53.705Z,3.20
2023-10-17T20:39:24.135Z,3.00
2023-10-17T20:46:12.459Z,3.30
2023-10-17T20:48:40.160Z,3.40
2023-10-17T20:51:06.899Z,3.40
2023-10-17T20:53:33.958Z,3.00
2023-10-17T20:56:01.812Z,2.90
2023-10-17T20:58:29.495Z,3.30
2023-10-17T21:00:56.373Z,3.50
2023-10-17T21:03:23.356Z,3.00
2023-10-17T21:05:50.084Z,2.60
2023-10-17T21:08:16.905Z,3.20
2023-10-17T21:10:46.474Z,3.40
2023-10-17T21:13:13.413Z,3.40
2023-10-17T21:15:41.232Z,4.30
2023-10-17T21:22:28.518Z,3.60
2023-10-17T21:29:15.247Z,3.60
2023-10-17T21:31:42.707Z,3.50
2023-10-17T21:34:11.118Z,3.90
2023-10-17T21:36:38.018Z,3.70
2023-10-17T21:39:07.897Z,3.90
2023-10-17T21:41:35.258Z,3.20
2023-10-17T21:44:02.169Z,3.30
2023-10-17T21:46:29.022Z,3.70
2023-10-17T21:48:56.137Z,3.10
2023-10-17T21:51:23.066Z,3.90
2023-10-17T21:53:50.059Z,2.30
2023-10-17T21:56:17.572Z,3.90
2023-10-17T21:58:48.810Z,3.70
2023-10-17T22:01:20.358Z,4.00
2023-10-17T22:03:48.878Z,4.20
2023-10-17T22:06:16.024Z,3.70
2023-10-17T22:08:49.582Z,3.90
2023-10-17T22:11:17.137Z,4.00
2023-10-17T22:13:46.531Z,4.00
2023-10-17T22:16:15.224Z,3.90
2023-10-17T22:18:44.817Z,3.80
2023-10-17T22:21:12.902Z,3.90
2023-10-17T22:23:41.358Z,3.70
2023-10-17T22:26:10.965Z,4.30
2023-10-17T22:28:38.268Z,3.80
2023-10-17T22:31:05.186Z,4.10
2023-10-17T22:33:32.414Z,4.00
2023-10-17T22:35:59.328Z,4.20
2023-10-17T22:38:26.236Z,3.80
2023-10-17T22:40:52.970Z,3.90
2023-10-17T22:43:20.045Z,3.70
2023-10-17T22:45:50.637Z,3.90
2023-10-17T22:48:17.628Z,3.80
2023-10-17T22:50:47.371Z,4.70
2023-10-17T22:53:14.797Z,3.60
2023-10-17T22:55:42.981Z,4.40
2023-10-17T22:58:09.992Z,4.20
2023-10-17T23:00:38.392Z,3.70
2023-10-17T23:03:09.259Z,4.20
2023-10-17T23:05:36.112Z,4.20
2023-10-17T23:08:04.469Z,3.80
2023-10-17T23:10:31.568Z,3.80
2023-10-17T23:12:58.712Z,4.20
2023-10-17T23:15:26.501Z,4.20
2023-10-17T23:17:53.826Z,3.70
2023-10-17T23:20:21.612Z,4.10
2023-10-17T23:22:50.181Z,4.30
2023-10-17T23:25:18.482Z,4.50
2023-10-17T23:27:46.833Z,4.60
2023-10-17T23:30:19.129Z,3.70
2023-10-17T23:32:47.101Z,3.80
2023-10-17T23:35:15.804Z,4.50
2023-10-17T23:37:46.902Z,4.30
2023-10-17T23:40:15.918Z,3.90
2023-10-17T23:42:43.259Z,4.00
2023-10-17T23:45:10.723Z,6.20
2023-10-17T23:47:41.557Z,3.90
2023-10-17T23:50:20.015Z,3.90
2023-10-17T23:52:48.107Z,4.90
2023-10-17T23:55:15.183Z,4.20
2023-10-17T23:57:47.777Z,4.70
